createdAt,value
2019-02-16T00:00:06.605Z,0.93
2019-02-16T00:02:33.285Z,0.80
2019-02-16T00:05:00.410Z,0.70
2019-02-16T00:07:26.580Z,1.22
2019-02-16T00:09:52.696Z,0.70
2019-02-16T00:12:18.920Z,0.90
2019-02-16T00:14:45.101Z,0.85
2019-02-16T00:17:11.248Z,0.70
2019-02-16T00:19:37.423Z,0.78
2019-02-16T00:22:03.504Z,0.70
2019-02-16T00:24:29.726Z,0.90
2019-02-16T00:26:55.820Z,0.88
2019-02-16T00:29:22.017Z,1.02
2019-02-16T00:31:48.100Z,0.80
2019-02-16T00:34:14.457Z,0.70
2019-02-16T00:36:40.568Z,0.68
2019-02-16T00:39:06.771Z,0.60
2019-02-16T00:41:33.048Z,0.90
2019-02-16T00:43:59.248Z,0.80
2019-02-16T00:46:25.610Z,1.00
2019-02-16T00:48:51.810Z,0.65
2019-02-16T00:51:18.021Z,0.70
2019-02-16T00:53:44.264Z,0.90
2019-02-16T00:56:10.473Z,0.80
2019-02-16T00:58:36.606Z,0.75
2019-02-16T01:01:02.785Z,0.85
2019-02-16T01:03:28.909Z,0.90
2019-02-16T01:05:58.093Z,0.98
2019-02-16T01:08:24.359Z,0.90
2019-02-16T01:10:50.621Z,0.90
2019-02-16T01:13:16.862Z,1.00
2019-02-16T01:15:43.103Z,0.90
2019-02-16T01:18:09.407Z,0.88
2019-02-16T01:20:35.619Z,1.00
2019-02-16T01:23:01.965Z,1.07
2019-02-16T01:25:28.149Z,0.80
2019-02-16T01:27:54.901Z,0.90
2019-02-16T01:30:22.424Z,0.78
2019-02-16T01:32:48.603Z,0.88
2019-02-16T01:35:14.835Z,0.90
2019-02-16T01:37:40.975Z,1.00
2019-02-16T01:40:07.924Z,0.50
2019-02-16T01:42:34.144Z,0.85
2019-02-16T01:45:00.239Z,0.70
2019-02-16T01:47:26.439Z,0.70
2019-02-16T01:49:53.641Z,0.70
2019-02-16T01:52:19.850Z,0.55
2019-02-16T01:54:45.976Z,0.70
2019-02-16T01:57:12.077Z,0.70
2019-02-16T01:59:38.244Z,0.70
2019-02-16T02:02:05.018Z,0.72
2019-02-16T02:04:31.124Z,0.80
2019-02-16T02:06:57.321Z,0.60
2019-02-16T02:09:23.608Z,0.50
2019-02-16T02:11:49.816Z,0.55
2019-02-16T02:14:17.031Z,0.60
2019-02-16T02:16:43.210Z,0.60
2019-02-16T02:19:09.360Z,0.50
2019-02-16T02:21:41.150Z,0.70
2019-02-16T02:24:03.664Z,0.40
2019-02-16T02:26:30.536Z,0.68
2019-02-16T02:28:58.534Z,0.60
2019-02-16T02:31:24.751Z,0.40
2019-02-16T02:33:51.591Z,0.60
2019-02-16T02:36:17.808Z,0.50
2019-02-16T02:38:43.915Z,0.60
2019-02-16T02:41:10.124Z,0.70
2019-02-16T02:43:36.209Z,0.50
2019-02-16T02:46:02.974Z,0.50
2019-02-16T02:48:29.255Z,0.53
2019-02-16T02:50:56.033Z,0.50
2019-02-16T02:53:30.796Z,0.55
2019-02-16T02:55:50.347Z,0.55
2019-02-16T02:58:16.451Z,0.68
2019-02-16T03:00:42.656Z,0.50
2019-02-16T03:03:08.964Z,0.50
2019-02-16T03:05:35.188Z,0.45
2019-02-16T03:08:02.394Z,0.60
2019-02-16T03:10:28.617Z,0.50
2019-02-16T03:12:55.030Z,0.40
2019-02-16T03:15:24.100Z,0.37
2019-02-16T03:17:50.189Z,0.50
2019-02-16T03:20:17.033Z,0.40
2019-02-16T03:23:03.638Z,0.50
2019-02-16T03:25:29.879Z,0.40
2019-02-16T03:28:06.873Z,0.50
2019-02-16T03:31:04.381Z,0.37
2019-02-16T03:33:38.049Z,0.40
2019-02-16T03:36:20.187Z,0.50
2019-02-16T03:38:50.596Z,0.33
2019-02-16T03:41:16.875Z,0.40
2019-02-16T03:43:44.082Z,0.37
2019-02-16T03:46:10.324Z,0.40
2019-02-16T03:48:37.992Z,0.30
2019-02-16T03:51:05.617Z,0.23
2019-02-16T03:53:32.077Z,0.37
2019-02-16T03:55:58.276Z,0.40
2019-02-16T03:58:24.446Z,0.30
2019-02-16T04:00:50.622Z,0.30
2019-02-16T04:03:18.857Z,0.35
2019-02-16T04:05:45.174Z,0.40
2019-02-16T04:08:11.359Z,0.40
2019-02-16T04:10:37.633Z,0.42
2019-02-16T04:13:03.762Z,0.33
2019-02-16T04:15:31.068Z,0.42
2019-02-16T04:17:57.174Z,0.40
2019-02-16T04:20:23.920Z,0.50
2019-02-16T04:22:50.082Z,0.40
2019-02-16T04:25:16.245Z,0.50
2019-02-16T04:27:43.494Z,0.47
2019-02-16T04:30:10.703Z,0.35
2019-02-16T04:32:37.487Z,0.50
2019-02-16T04:35:04.742Z,0.40
2019-02-16T04:37:31.597Z,0.30
2019-02-16T04:39:57.828Z,0.37
2019-02-16T04:42:25.602Z,0.30
2019-02-16T04:44:51.920Z,0.47
2019-02-16T04:47:20.434Z,0.50
2019-02-16T04:49:46.598Z,0.47
2019-02-16T04:52:12.826Z,0.53
2019-02-16T04:54:40.526Z,0.60
2019-02-16T04:57:06.850Z,0.53
2019-02-16T04:59:33.202Z,0.50
2019-02-16T05:01:59.448Z,0.62
2019-02-16T05:04:26.072Z,0.90
2019-02-16T05:06:52.259Z,0.62
2019-02-16T05:09:18.390Z,0.60
2019-02-16T05:11:44.941Z,0.50
2019-02-16T05:14:11.035Z,0.47
2019-02-16T05:16:38.181Z,0.40
2019-02-16T05:19:05.387Z,0.62
2019-02-16T05:21:31.631Z,0.55
2019-02-16T05:23:57.789Z,0.47
2019-02-16T05:26:24.075Z,0.50
2019-02-16T05:28:50.324Z,0.40
2019-02-16T05:31:16.591Z,0.40
2019-02-16T05:33:43.138Z,0.50
2019-02-16T05:36:09.386Z,0.60
2019-02-16T05:38:35.594Z,0.55
2019-02-16T05:41:02.105Z,0.60
2019-02-16T05:43:28.323Z,0.45
2019-02-16T05:45:55.176Z,0.70
2019-02-16T05:48:21.385Z,0.50
2019-02-16T05:50:48.203Z,0.50
2019-02-16T05:53:14.348Z,0.60
2019-02-16T05:55:40.559Z,0.70
2019-02-16T05:58:07.756Z,0.65
2019-02-16T06:00:33.926Z,0.65
2019-02-16T06:03:00.307Z,0.60
2019-02-16T06:05:26.517Z,0.60
2019-02-16T06:07:52.627Z,0.60
2019-02-16T06:10:19.125Z,0.50
2019-02-16T06:12:45.607Z,0.50
2019-02-16T06:15:12.150Z,0.80
2019-02-16T06:17:38.274Z,0.60
2019-02-16T06:20:06.543Z,0.65
2019-02-16T06:22:32.815Z,0.53
2019-02-16T06:24:58.992Z,0.50
2019-02-16T06:27:25.132Z,0.60
2019-02-16T06:29:51.345Z,0.70
2019-02-16T06:32:17.490Z,0.70
2019-02-16T06:34:43.691Z,0.70
2019-02-16T06:37:24.393Z,0.50
2019-02-16T06:39:50.803Z,0.40
2019-02-16T06:42:17.052Z,0.68
2019-02-16T06:44:44.140Z,0.45
2019-02-16T06:47:10.528Z,0.53
2019-02-16T06:49:36.784Z,0.80
2019-02-16T06:52:03.074Z,0.60
2019-02-16T06:54:29.308Z,0.45
2019-02-16T06:57:14.037Z,0.50
2019-02-16T06:59:40.238Z,0.50
2019-02-16T07:02:06.384Z,0.35
2019-02-16T07:04:32.602Z,0.60
2019-02-16T07:06:58.736Z,0.50
2019-02-16T07:09:24.974Z,0.53
2019-02-16T07:11:51.135Z,0.50
2019-02-16T07:14:17.375Z,0.40
2019-02-16T07:16:45.965Z,0.50
2019-02-16T07:19:16.807Z,0.50
2019-02-16T07:21:43.446Z,0.50
2019-02-16T07:24:09.809Z,0.60
2019-02-16T07:26:36.538Z,0.47
2019-02-16T07:29:02.703Z,0.40
2019-02-16T07:31:30.010Z,0.50
2019-02-16T07:33:56.150Z,0.50
2019-02-16T07:36:22.350Z,0.50
2019-02-16T07:38:48.584Z,0.50
2019-02-16T07:41:14.827Z,0.60
2019-02-16T07:43:49.279Z,0.40
2019-02-16T07:46:17.271Z,0.40
2019-02-16T07:48:45.394Z,0.50
2019-02-16T07:51:13.454Z,0.40
2019-02-16T07:53:42.168Z,0.40
2019-02-16T07:56:10.260Z,0.40
2019-02-16T07:58:41.339Z,0.42
2019-02-16T08:03:52.504Z,0.40
2019-02-16T08:06:32.537Z,0.40
2019-02-16T08:09:01.589Z,0.30
2019-02-16T08:11:31.025Z,0.40
2019-02-16T08:14:01.901Z,0.50
2019-02-16T08:16:54.792Z,0.50
2019-02-16T08:19:28.932Z,0.50
2019-02-16T08:22:00.077Z,0.60
2019-02-16T08:26:56.228Z,0.40
2019-02-16T08:29:30.180Z,0.55
2019-02-16T08:31:58.464Z,0.50
2019-02-16T08:34:29.613Z,0.47
2019-02-16T08:37:14.428Z,0.55
2019-02-16T08:39:58.842Z,0.42
2019-02-16T08:42:26.990Z,0.50
2019-02-16T08:44:55.142Z,0.50
2019-02-16T08:47:32.143Z,0.57
2019-02-16T08:50:03.201Z,0.47
2019-02-16T08:55:02.369Z,0.60
2019-02-16T08:57:33.332Z,0.50
2019-02-16T09:00:19.391Z,0.50
2019-02-16T09:02:47.640Z,0.62
2019-02-16T09:05:15.773Z,0.55
2019-02-16T09:07:47.304Z,0.50
2019-02-16T09:10:18.687Z,0.55
2019-02-16T09:12:47.205Z,0.50
2019-02-16T09:15:18.195Z,0.40
2019-02-16T09:17:55.615Z,0.50
2019-02-16T09:20:23.987Z,0.50
2019-02-16T09:22:52.374Z,0.57
2019-02-16T09:25:32.555Z,0.60
2019-02-16T09:28:04.118Z,0.40
2019-02-16T09:30:32.651Z,0.60
2019-02-16T09:33:07.046Z,0.60
2019-02-16T09:35:38.154Z,0.50
2019-02-16T09:40:57.777Z,0.50
2019-02-16T09:43:32.137Z,0.60
2019-02-16T09:46:15.424Z,0.68
2019-02-16T09:48:49.520Z,0.57
2019-02-16T09:51:21.095Z,0.50
2019-02-16T09:53:49.127Z,0.60
2019-02-16T09:56:19.114Z,0.78
2019-02-16T09:58:57.193Z,0.82
2019-02-16T10:01:25.299Z,0.72
2019-02-16T10:04:05.140Z,0.75
2019-02-16T10:06:48.295Z,0.85
2019-02-16T10:09:16.935Z,0.90
2019-02-16T10:11:45.321Z,0.80
2019-02-16T10:14:19.329Z,1.00
2019-02-16T10:16:47.866Z,1.30
2019-02-16T10:19:21.717Z,1.42
2019-02-16T10:21:49.780Z,1.20
2019-02-16T10:24:34.488Z,1.10
2019-02-16T10:27:19.510Z,1.00
2019-02-16T10:29:50.942Z,0.93
2019-02-16T10:32:20.052Z,0.90
2019-02-16T10:34:48.157Z,0.80
2019-02-16T10:37:18.994Z,0.90
2019-02-16T10:42:24.824Z,0.82
2019-02-16T10:45:10.233Z,0.85
2019-02-16T10:47:38.970Z,1.02
2019-02-16T10:50:11.693Z,0.85
2019-02-16T10:52:41.281Z,0.93
2019-02-16T10:55:16.199Z,0.88
2019-02-16T11:13:11.382Z,0.93
2019-02-16T11:15:39.486Z,0.80
2019-02-16T11:18:16.465Z,1.12
2019-02-16T11:20:57.042Z,0.78
2019-02-16T11:23:27.078Z,1.07
2019-02-16T11:26:11.777Z,0.90
2019-02-16T11:28:49.889Z,1.52
2019-02-16T11:31:21.258Z,1.20
2019-02-16T11:34:04.134Z,1.00
2019-02-16T11:36:35.753Z,1.07
2019-02-16T11:39:08.307Z,1.00
2019-02-16T11:41:36.401Z,1.37
2019-02-16T11:44:13.752Z,0.88
2019-02-16T11:46:47.588Z,1.10
2019-02-16T11:49:18.670Z,1.17
2019-02-16T11:51:52.428Z,1.00
2019-02-16T11:54:20.568Z,0.90
2019-02-16T11:56:54.444Z,1.52
2019-02-16T11:59:22.546Z,1.17
2019-02-16T12:01:53.447Z,1.45
2019-02-16T12:04:24.573Z,1.50
2019-02-16T12:07:10.209Z,1.75
2019-02-16T12:09:54.866Z,1.27
2019-02-16T12:12:29.029Z,1.50
2019-02-16T12:15:15.078Z,1.65
2019-02-16T12:17:49.242Z,1.85
2019-02-16T12:20:20.604Z,2.20
2019-02-16T12:23:01.995Z,1.90
2019-02-16T12:25:30.218Z,2.35
2019-02-16T12:28:10.597Z,2.30
2019-02-16T12:30:47.763Z,2.30
2019-02-16T12:33:32.609Z,1.98
2019-02-16T12:36:00.651Z,2.50
2019-02-16T12:38:31.548Z,2.70
2019-02-16T12:41:08.713Z,1.95
2019-02-16T12:43:36.879Z,2.70
2019-02-16T12:46:05.372Z,2.60
2019-02-16T12:48:42.383Z,2.50
2019-02-16T12:51:26.035Z,2.70
2019-02-16T12:54:13.975Z,2.42
2019-02-16T12:56:42.260Z,2.87
2019-02-16T12:59:10.835Z,3.20
2019-02-16T13:01:54.455Z,3.00
2019-02-16T13:04:39.196Z,3.50
2019-02-16T13:07:07.230Z,4.03
2019-02-16T13:09:40.255Z,3.77
2019-02-16T13:12:08.056Z,3.20
2019-02-16T13:14:36.416Z,4.22
2019-02-16T13:17:16.540Z,4.20
2019-02-16T13:19:44.655Z,4.10
2019-02-16T13:22:19.097Z,4.78
2019-02-16T13:24:47.251Z,5.10
2019-02-16T13:27:15.533Z,4.62
2019-02-16T13:29:46.517Z,4.45
2019-02-16T13:32:31.320Z,4.62
2019-02-16T13:35:16.066Z,4.67
2019-02-16T13:37:44.143Z,4.67
2019-02-16T13:40:29.268Z,5.10
2019-02-16T13:42:57.262Z,4.33
2019-02-16T13:45:25.962Z,4.58
2019-02-16T13:47:54.471Z,3.98
2019-02-16T13:50:50.784Z,4.50
2019-02-16T13:53:31.208Z,4.67
2019-02-16T13:56:08.295Z,3.37
2019-02-16T13:58:39.198Z,3.22
2019-02-16T14:01:07.243Z,4.47
2019-02-16T14:03:35.358Z,3.75
2019-02-16T14:06:15.697Z,4.05
2019-02-16T14:08:59.082Z,3.30
2019-02-16T14:11:42.726Z,3.67
2019-02-16T14:14:10.928Z,3.47
2019-02-16T14:16:39.055Z,3.30
2019-02-16T14:19:05.271Z,4.05
2019-02-16T14:21:31.504Z,3.72
2019-02-16T14:23:57.631Z,3.52
2019-02-16T14:26:23.923Z,3.83
2019-02-16T14:28:50.018Z,3.55
2019-02-16T14:31:18.100Z,4.25
2019-02-16T14:33:44.248Z,3.83
2019-02-16T14:36:10.431Z,3.85
2019-02-16T14:38:38.527Z,4.40
2019-02-16T14:41:04.874Z,4.92
2019-02-16T14:43:31.010Z,4.28
2019-02-16T14:45:57.504Z,4.15
2019-02-16T14:48:23.709Z,3.83
2019-02-16T14:50:50.192Z,3.72
2019-02-16T14:53:17.490Z,4.40
2019-02-16T14:55:52.338Z,3.80
2019-02-16T14:58:12.205Z,4.30
2019-02-16T15:00:39.033Z,4.55
2019-02-16T15:03:05.205Z,4.42
2019-02-16T15:05:32.489Z,3.83
2019-02-16T15:08:01.387Z,4.05
2019-02-16T15:10:28.603Z,3.93
2019-02-16T15:12:54.714Z,4.37
2019-02-16T15:15:21.063Z,4.17
2019-02-16T15:17:49.477Z,4.12
2019-02-16T15:20:19.394Z,4.10
2019-02-16T15:22:45.540Z,4.15
2019-02-16T15:25:12.711Z,4.80
2019-02-16T15:27:40.097Z,3.90
2019-02-16T15:30:14.231Z,3.95
2019-02-16T15:32:42.485Z,3.90
2019-02-16T15:35:09.576Z,3.70
2019-02-16T15:37:35.783Z,3.60
2019-02-16T15:40:02.923Z,3.77
2019-02-16T15:42:30.120Z,4.25
2019-02-16T15:44:56.618Z,3.95
2019-02-16T15:47:22.876Z,3.70
2019-02-16T15:49:49.248Z,3.72
2019-02-16T15:52:15.401Z,3.87
2019-02-16T15:54:41.645Z,3.70
2019-02-16T15:57:07.936Z,3.67
2019-02-16T15:59:35.405Z,3.67
2019-02-16T16:02:01.891Z,4.03
2019-02-16T16:04:28.074Z,3.72
2019-02-16T16:06:54.220Z,4.00
2019-02-16T16:09:37.508Z,3.95
2019-02-16T16:12:11.888Z,3.67
2019-02-16T16:14:58.381Z,3.33
2019-02-16T16:17:41.705Z,3.40
2019-02-16T16:20:09.811Z,3.00
2019-02-16T16:22:44.202Z,3.22
2019-02-16T16:25:21.523Z,3.58
2019-02-16T16:28:04.914Z,3.70
2019-02-16T16:30:33.245Z,3.80
2019-02-16T16:33:13.502Z,3.50
2019-02-16T16:35:41.592Z,7.70
2019-02-16T16:38:09.703Z,3.60
2019-02-16T16:40:37.830Z,3.60
2019-02-16T16:43:11.785Z,3.98
2019-02-16T16:45:40.167Z,3.67
2019-02-16T16:48:18.590Z,3.37
2019-02-16T16:50:46.896Z,3.50
2019-02-16T16:53:18.477Z,4.50
2019-02-16T16:55:57.597Z,3.35
2019-02-16T16:58:34.919Z,3.70
2019-02-16T17:01:03.203Z,3.98
2019-02-16T17:03:31.354Z,4.15
2019-02-16T17:05:59.749Z,3.80
2019-02-16T17:08:27.915Z,4.20
2019-02-16T17:11:02.431Z,4.53
2019-02-16T17:13:33.939Z,4.53
2019-02-16T17:16:14.501Z,4.10
2019-02-16T17:18:49.104Z,3.90
2019-02-16T17:21:23.195Z,3.77
2019-02-16T17:23:54.460Z,4.90
2019-02-16T17:26:37.720Z,3.92
2019-02-16T17:29:14.103Z,3.55
2019-02-16T17:31:57.588Z,3.50
2019-02-16T17:34:44.294Z,3.47
2019-02-16T17:37:18.753Z,3.75
2019-02-16T17:40:04.258Z,3.33
2019-02-16T17:42:38.120Z,3.47
2019-02-16T17:45:21.491Z,3.60
2019-02-16T17:47:49.966Z,3.75
2019-02-16T17:50:36.391Z,3.92
2019-02-16T17:53:11.887Z,2.87
2019-02-16T17:55:55.561Z,3.72
2019-02-16T17:58:26.654Z,2.67
2019-02-16T18:01:08.522Z,3.67
2019-02-16T18:06:05.405Z,3.47
2019-02-16T18:08:35.822Z,3.60
2019-02-16T18:11:03.992Z,2.52
2019-02-16T18:13:38.189Z,2.83
2019-02-16T18:16:07.454Z,2.87
2019-02-16T18:18:36.343Z,3.20
2019-02-16T18:21:13.321Z,2.98
2019-02-16T18:23:47.067Z,2.50
2019-02-16T18:26:20.890Z,2.83
2019-02-16T18:28:57.337Z,2.67
2019-02-16T18:31:22.382Z,2.72
2019-02-16T18:34:02.240Z,2.42
2019-02-16T18:36:47.046Z,3.15
2019-02-16T18:39:32.846Z,2.95
2019-02-16T18:42:20.464Z,3.58
2019-02-16T18:44:54.368Z,4.97
2019-02-16T18:47:22.412Z,4.12
2019-02-16T18:50:07.162Z,9.13
2019-02-16T18:52:41.244Z,4.50
2019-02-16T18:55:11.148Z,5.80
2019-02-16T18:57:39.731Z,8.70
2019-02-16T19:00:11.273Z,6.45
2019-02-16T19:02:39.396Z,12.58
2019-02-16T19:05:10.714Z,2.40
2019-02-16T19:07:38.760Z,21.82
2019-02-16T19:10:25.642Z,16.20
2019-02-16T19:13:05.672Z,2.85
2019-02-16T19:15:39.820Z,2.87
2019-02-16T19:18:07.974Z,3.00
2019-02-16T19:20:38.801Z,22.30
2019-02-16T19:23:09.666Z,10.65
2019-02-16T19:25:40.423Z,7.78
2019-02-16T19:28:15.178Z,2.75
2019-02-16T19:30:59.605Z,2.92
2019-02-16T19:33:27.812Z,2.80
2019-02-16T19:36:02.186Z,3.08
2019-02-16T19:38:30.328Z,2.80
2019-02-16T19:40:58.505Z,3.45
2019-02-16T19:43:28.101Z,3.55
2019-02-16T19:46:02.187Z,3.17
2019-02-16T19:48:42.962Z,14.13
2019-02-16T19:51:23.243Z,5.33
2019-02-16T19:53:57.403Z,4.20
2019-02-16T19:56:25.562Z,3.75
2019-02-16T19:58:59.511Z,3.05
2019-02-16T20:01:30.889Z,3.10
2019-02-16T20:04:04.822Z,2.67
2019-02-16T20:06:49.626Z,2.90
2019-02-16T20:09:19.210Z,2.95
2019-02-16T20:12:03.582Z,3.40
2019-02-16T20:14:37.537Z,3.47
2019-02-16T20:17:08.691Z,3.55
2019-02-16T20:19:48.680Z,2.75
2019-02-16T20:22:34.927Z,3.35
2019-02-16T20:25:04.417Z,3.67
2019-02-16T20:27:37.595Z,2.85
2019-02-16T20:30:07.230Z,3.45
2019-02-16T20:32:39.945Z,3.35
2019-02-16T20:35:07.947Z,6.72
2019-02-16T20:37:39.510Z,6.65
2019-02-16T20:40:19.598Z,3.62
2019-02-16T20:42:56.706Z,3.65
2019-02-16T20:45:27.663Z,5.00
2019-02-16T20:48:10.865Z,20.70
2019-02-16T20:50:48.552Z,14.90
2019-02-16T20:53:24.111Z,3.10
2019-02-16T20:55:53.423Z,3.08
2019-02-16T20:58:33.856Z,3.42
2019-02-16T21:01:10.668Z,3.10
2019-02-16T21:03:38.721Z,3.42
2019-02-16T21:06:12.671Z,3.92
2019-02-16T21:08:40.797Z,3.05
2019-02-16T21:11:09.570Z,4.87
2019-02-16T21:13:50.007Z,3.35
2019-02-16T21:16:34.870Z,4.90
2019-02-16T21:19:06.053Z,3.37
2019-02-16T21:21:50.659Z,5.83
2019-02-16T21:24:18.759Z,7.60
2019-02-16T21:26:53.683Z,3.15
2019-02-16T21:29:22.539Z,3.60
2019-02-16T21:31:50.998Z,3.17
2019-02-16T21:34:25.354Z,2.67
2019-02-16T21:36:54.226Z,3.27
2019-02-16T21:39:22.343Z,2.98
2019-02-16T21:42:06.750Z,3.02
2019-02-16T21:44:34.848Z,2.62
2019-02-16T21:47:06.355Z,2.87
2019-02-16T21:49:51.359Z,2.15
2019-02-16T21:52:19.607Z,2.87
2019-02-16T21:55:02.865Z,2.72
2019-02-16T21:57:48.717Z,2.60
2019-02-16T22:00:25.583Z,2.77
2019-02-16T22:02:53.591Z,2.77
2019-02-16T22:05:28.335Z,2.55
2019-02-16T22:07:59.455Z,2.22
2019-02-16T22:13:02.273Z,2.17
2019-02-16T22:15:28.962Z,2.37
2019-02-16T22:17:56.447Z,2.65
2019-02-16T22:20:24.031Z,2.80
2019-02-16T22:22:50.273Z,2.52
2019-02-16T22:25:19.514Z,2.15
2019-02-16T22:27:45.161Z,2.60
2019-02-16T22:30:11.371Z,2.80
2019-02-16T22:32:37.588Z,2.27
2019-02-16T22:35:04.535Z,2.15
2019-02-16T22:37:30.804Z,1.75
2019-02-16T22:39:59.598Z,2.30
2019-02-16T22:42:26.353Z,2.10
2019-02-16T22:44:52.714Z,2.50
2019-02-16T22:47:19.617Z,2.50
2019-02-16T22:49:47.112Z,2.10
2019-02-16T22:52:13.669Z,2.40
2019-02-16T22:54:40.129Z,2.33
2019-02-16T22:57:06.288Z,2.15
2019-02-16T22:59:32.910Z,2.62
2019-02-16T23:01:59.424Z,2.12
2019-02-16T23:04:25.520Z,2.22
2019-02-16T23:06:52.317Z,2.30
2019-02-16T23:09:20.627Z,2.25
2019-02-16T23:11:46.850Z,2.42
2019-02-16T23:14:12.942Z,2.50
2019-02-16T23:16:39.127Z,2.15
2019-02-16T23:19:06.303Z,2.12
2019-02-16T23:21:32.759Z,1.90
2019-02-16T23:23:59.519Z,2.40
2019-02-16T23:26:26.019Z,2.17
2019-02-16T23:28:53.295Z,2.47
2019-02-16T23:31:19.923Z,2.25
2019-02-16T23:33:46.110Z,2.30
2019-02-16T23:36:12.555Z,2.00
2019-02-16T23:38:38.769Z,1.75
2019-02-16T23:41:06.471Z,2.42
2019-02-16T23:43:32.868Z,2.52
2019-02-16T23:45:58.981Z,2.17
2019-02-16T23:48:25.213Z,2.08
2019-02-16T23:50:51.328Z,2.17
2019-02-16T23:53:17.523Z,2.10
2019-02-16T23:55:43.640Z,2.20
2019-02-16T23:58:09.867Z,2.20
